バンギ の空港の天気 - METARとTAF

バンギ・ムポコ国際空港 ( FEFF / BGF ) - 中央アフリカ バンギ
飛行場実況気象(Metar)
観測時間10/16 07:00 WAT (10/16 06:00 UTC)
風向・風速不定 1m/s
視程7000m
天気現象
少しの雲 雲底高度 210m
気温23℃
湿度94%
気圧1013hPa
METARFEFF 160600Z VRB02KT 7000 FEW007 23/22 Q1013 NOSIG
過去の天気等 Google飛行場航空写真 Wunderground天気予報

過去48時間のMETAR

飛行場予報(TAF)
発表時間: 10/16 06:00 WAT (10/16 05:00 UTC)
予報対象時間: 16日7時 WAT ~ 17日13時 WAT
風向・風速不定 2m/s
視程8000m
少しの雲 雲底高度 300m
16日10時 WAT ~ 16日13時 WAT に徐々に
風向・風速西 3m/s
視程10km以上
全天の8割程度の雲 雲底高度 700m
16日14時 WAT ~ 16日17時 WAT に一時的に
風向・風速東北東 8m/s
視程4000m
天気現象雷雨
少しの積乱雲 雲底高度 1220m
TAF FEFF 160500Z 1606/1712 VRB03KT 8000 FEW010
BECMG 1609/1612 26006KT 9999 BKN023
TEMPO 1613/1616 06015KT 4000 TSRA FEW040CB